Pagrindinis puslapis
METAR-TAF:

METAR-TAF

Oro uostai :

Akrotiris, Kipras

platuma: 34-35N, ilguma: 032-59E, Aukštis: 23 m

Dabartinis oras

Ataskaita buvo paskelbta 29 minutes, ne 05:20 UTC
Vėjas 6 kt iš Vakarų
Temperatūra 16°C
Drėgmė 72%
Slėgis 1010 hPa
Matomumas 10 km arba daugiau
Mažai debesys ne aukštis 2000 ft, Liūtiniai kamuoliniai debesys.

METAR: LCRA 100520Z 26006KT 9999 FEW020CB 16/11 Q1010 NOSIG

Laikas: 08:49 (05:49 UTC)

Prognozė

Ataskaita buvo paskelbta 1 valandą ir 39 minutes, ne 04:10 UTC
Prognozė galioja nuo 10 metu 06 UTC su 10 metu 24 UTC
Vėjas 10 kt iš Vakarų
Matomumas 10 km arba daugiau
Mažai debesys ne aukštis 2500 ft
Laikinai
nuo 10 metu 06 UTC su 10 metu 15 UTC
Matomumas: 7000 m
Išsisklaidę debesys ne aukštis 2000 ft
lietus
Tikimybė 30% :
Laikinai
nuo 10 metu 06 UTC su 10 metu 15 UTC
Matomumas: 4000 m
Išsisklaidę debesys ne aukštis 2200 ft, Liūtiniai kamuoliniai debesys.
perkūnija, lietus

TAF: LCRA 100410Z 1006/1024 26010KT 9999 FEW025 TEMPO 1006/1015 7000 SHRA SCT020 PROB30 TEMPO 1006/1015 4000 TSRA SCT022CB

Orai ataskaitas ir orų prognozės (METAR, TAF).

turimą stotys yra geltonos ir raudonos taškus žemėlapyje.

Perkelti pele per norėdami pamatyti stoties vardą.

Tada spustelėkite, norėdami matyti oro stebėjimo ir prognozės.

Norėdami pakeisti žemėlapį: spustelėkite ant žalios mygtukų su juodo kryžiaus žemyn,; žalią mygtuką su brūkšneliu, jei norite nutolinti; arba žalių rodyklių gretimoms žemėlapius.


METAR-TAF: